Time;durP1;ratioP1;P1;durP2;ratioP2;P2;SDS_P1;SDS_P2;PMS_P1;PMS_P2;Temp;Humidity;BMP_temperature;BMP_pressure;BME280_temperature;BME280_humidity;BME280_pressure;Samples;Min_cycle;Max_cycle;Signal;HPM_P1;HPM_P2
2022/05/19 00:00:19;;;;;;;;;4.00;4.00;;;;;;;;5124978;27;61780;-74
2022/05/19 00:02:45;;;;;;;;;3.00;3.00;;;;;;;;5125437;27;62088;-75
2022/05/19 00:05:10;;;;;;;;;1.67;1.67;;;;;;;;5123299;27;63758;-74
2022/05/19 00:07:36;;;;;;;;;2.67;2.67;;;;;;;;5124723;27;61844;-74
2022/05/19 00:10:02;;;;;;;;;3.33;2.00;;;;;;;;5124917;27;61745;-74
2022/05/19 00:12:28;;;;;;;;;2.00;2.00;;;;;;;;5124985;27;62083;-74
2022/05/19 00:14:53;;;;;;;;;3.67;3.67;;;;;;;;5123673;27;61729;-74
2022/05/19 00:17:19;;;;;;;;;2.00;2.00;;;;;;;;5124939;27;61916;-74
2022/05/19 00:19:44;;;;;;;;;4.00;3.00;;;;;;;;5125171;27;61821;-74
2022/05/19 00:22:11;;;;;;;;;3.33;1.67;;;;;;;;5124777;27;61732;-74
2022/05/19 00:24:37;;;;;;;;;3.00;3.00;;;;;;;;5124469;27;62425;-74
2022/05/19 00:27:02;;;;;;;;;3.67;3.67;;;;;;;;5124341;27;61819;-74
2022/05/19 00:29:27;;;;;;;;;4.67;3.67;;;;;;;;5123376;27;62385;-75
2022/05/19 00:31:53;;;;;;;;;2.67;1.67;;;;;;;;5124718;27;61783;-75
2022/05/19 00:34:18;;;;;;;;;4.33;4.33;;;;;;;;5124076;27;63365;-74
2022/05/19 00:36:44;;;;;;;;;4.00;3.00;;;;;;;;5124880;27;62011;-75
2022/05/19 00:39:11;;;;;;;;;3.33;3.00;;;;;;;;5124003;27;62065;-74
2022/05/19 00:41:40;;;;;;;;;5.00;3.00;;;;;;;;5124771;27;61927;-75
2022/05/19 00:44:05;;;;;;;;;8.00;4.00;;;;;;;;5123126;27;64601;-75
2022/05/19 00:46:35;;;;;;;;;2.67;2.67;;;;;;;;5124507;27;61978;-74
2022/05/19 00:49:04;;;;;;;;;3.00;3.00;;;;;;;;5124468;27;61806;-74
2022/05/19 00:51:44;;;;;;;;;5.67;4.00;;;;;;;;5124573;27;61784;-74
2022/05/19 00:54:14;;;;;;;;;4.67;2.33;;;;;;;;5123332;27;62191;-74
2022/05/19 00:56:47;;;;;;;;;4.00;3.00;;;;;;;;5109541;27;61740;-74
2022/05/19 00:59:19;;;;;;;;;3.00;3.00;;;;;;;;5123581;27;62156;-74
2022/05/19 01:01:44;;;;;;;;;2.33;2.33;;;;;;;;5124223;27;61678;-74
2022/05/19 01:04:19;;;;;;;;;2.00;2.00;;;;;;;;5123393;27;61846;-74
2022/05/19 01:06:46;;;;;;;;;6.00;4.67;;;;;;;;5124353;27;61775;-74
2022/05/19 01:09:14;;;;;;;;;3.00;3.00;;;;;;;;5121986;27;62279;-75
2022/05/19 01:11:39;;;;;;;;;5.67;5.00;;;;;;;;5123606;27;61793;-74
2022/05/19 01:14:06;;;;;;;;;4.00;3.67;;;;;;;;5122728;27;61814;-75
2022/05/19 01:16:32;;;;;;;;;6.33;4.67;;;;;;;;5124018;27;61934;-74
2022/05/19 01:18:57;;;;;;;;;5.67;4.33;;;;;;;;5123840;27;61909;-74
2022/05/19 01:21:25;;;;;;;;;6.00;4.00;;;;;;;;5124220;27;62179;-74
2022/05/19 01:23:50;;;;;;;;;9.00;7.67;;;;;;;;5122977;27;61753;-74
2022/05/19 01:26:28;;;;;;;;;7.00;5.00;;;;;;;;5121320;27;61777;-74
2022/05/19 01:28:57;;;;;;;;;4.33;3.67;;;;;;;;5122009;27;62057;-74
2022/05/19 01:31:30;;;;;;;;;8.00;5.67;;;;;;;;5123692;27;61887;-74
2022/05/19 01:33:56;;;;;;;;;5.67;4.67;;;;;;;;5121467;27;64993;-74
2022/05/19 01:36:21;;;;;;;;;6.00;5.33;;;;;;;;5121861;27;61775;-75
2022/05/19 01:38:48;;;;;;;;;5.33;5.00;;;;;;;;5123247;27;61911;-74
2022/05/19 01:41:17;;;;;;;;;5.00;5.00;;;;;;;;5123647;27;61848;-74
2022/05/19 01:44:09;;;;;;;;;6.33;4.33;;;;;;;;5121275;27;63791;-74
2022/05/19 01:46:36;;;;;;;;;5.67;5.00;;;;;;;;5120067;27;62094;-74
2022/05/19 01:49:08;;;;;;;;;5.67;5.67;;;;;;;;5121885;27;61707;-74
2022/05/19 01:51:51;;;;;;;;;8.00;6.33;;;;;;;;5123831;27;61751;-74
2022/05/19 01:54:35;;;;;;;;;8.33;6.00;;;;;;;;5122485;27;61748;-74
2022/05/19 01:57:04;;;;;;;;;9.67;7.00;;;;;;;;5122932;27;61985;-74
2022/05/19 01:59:43;;;;;;;;;4.67;4.67;;;;;;;;5122932;27;61855;-75
2022/05/19 02:02:12;;;;;;;;;8.00;5.00;;;;;;;;5123572;27;61807;-74
2022/05/19 02:04:48;;;;;;;;;6.67;6.67;;;;;;;;5122533;27;61878;-75
2022/05/19 02:07:16;;;;;;;;;5.00;5.00;;;;;;;;5120980;27;62174;-74
2022/05/19 02:09:45;;;;;;;;;9.33;6.00;;;;;;;;5123028;27;61812;-74
2022/05/19 02:12:11;;;;;;;;;6.00;6.00;;;;;;;;5123466;27;61973;-75
2022/05/19 02:14:43;;;;;;;;;4.00;4.00;;;;;;;;5120622;27;63645;-75
2022/05/19 02:17:09;;;;;;;;;6.00;6.00;;;;;;;;5121452;27;61997;-75
2022/05/19 02:19:39;;;;;;;;;6.33;6.33;;;;;;;;5123216;27;61874;-74
2022/05/19 02:22:06;;;;;;;;;7.00;7.00;;;;;;;;5123011;27;61728;-75
2022/05/19 02:24:34;;;;;;;;;8.00;8.00;;;;;;;;5120784;27;63722;-74
2022/05/19 02:27:18;;;;;;;;;6.67;6.67;;;;;;;;5122988;27;61706;-74
2022/05/19 02:29:43;;;;;;;;;9.00;7.00;;;;;;;;5122387;27;61844;-74
2022/05/19 02:32:10;;;;;;;;;8.67;7.00;;;;;;;;5123057;27;61695;-74
2022/05/19 02:34:35;;;;;;;;;7.33;6.00;;;;;;;;5122013;27;61913;-74
2022/05/19 02:37:00;;;;;;;;;5.67;5.67;;;;;;;;5123118;27;61805;-76
2022/05/19 02:39:26;;;;;;;;;8.00;7.33;;;;;;;;5126463;27;62047;-74
2022/05/19 02:41:51;;;;;;;;;4.67;4.33;;;;;;;;5125226;27;61912;-74
2022/05/19 02:44:16;;;;;;;;;7.00;7.00;;;;;;;;5124049;27;62553;-74
2022/05/19 02:46:41;;;;;;;;;5.00;5.00;;;;;;;;5126449;27;61969;-74
2022/05/19 02:49:07;;;;;;;;;5.67;5.67;;;;;;;;5126395;27;61708;-74
2022/05/19 02:51:32;;;;;;;;;6.00;6.00;;;;;;;;5126332;27;61773;-74
2022/05/19 02:53:57;;;;;;;;;8.00;6.33;;;;;;;;5125654;27;61960;-74
2022/05/19 02:56:23;;;;;;;;;6.33;6.00;;;;;;;;5112529;27;62191;-75
2022/05/19 02:58:50;;;;;;;;;5.67;5.67;;;;;;;;5126002;27;61849;-75
2022/05/19 03:01:15;;;;;;;;;7.33;6.00;;;;;;;;5124317;27;62199;-74
2022/05/19 03:03:40;;;;;;;;;5.00;5.00;;;;;;;;5125334;27;61793;-75
2022/05/19 03:06:06;;;;;;;;;6.33;6.00;;;;;;;;5125998;27;61858;-74
2022/05/19 03:08:31;;;;;;;;;5.00;5.00;;;;;;;;5125539;27;62086;-74
2022/05/19 03:10:56;;;;;;;;;8.33;6.67;;;;;;;;5124677;27;61743;-75
2022/05/19 03:13:23;;;;;;;;;10.00;6.00;;;;;;;;5123665;27;64826;-75
2022/05/19 03:15:49;;;;;;;;;6.00;6.00;;;;;;;;5125660;27;61989;-74
2022/05/19 03:18:15;;;;;;;;;4.67;4.67;;;;;;;;5125682;27;61925;-74
2022/05/19 03:20:41;;;;;;;;;9.00;9.00;;;;;;;;5125599;27;62017;-74
2022/05/19 03:23:06;;;;;;;;;10.00;8.67;;;;;;;;5125246;27;63112;-74
2022/05/19 03:25:31;;;;;;;;;9.00;7.33;;;;;;;;5125637;27;61937;-74
2022/05/19 03:27:56;;;;;;;;;7.33;5.33;;;;;;;;5125606;27;62204;-74
2022/05/19 03:30:22;;;;;;;;;6.33;5.00;;;;;;;;5125402;27;62027;-74
2022/05/19 03:32:47;;;;;;;;;6.67;6.67;;;;;;;;5125050;27;62879;-74
2022/05/19 03:35:14;;;;;;;;;5.00;5.00;;;;;;;;5123910;27;61961;-74
2022/05/19 03:37:39;;;;;;;;;5.33;5.33;;;;;;;;5125272;27;61858;-75
2022/05/19 03:40:06;;;;;;;;;8.00;6.00;;;;;;;;5125927;27;61823;-75
2022/05/19 03:42:32;;;;;;;;;7.00;5.67;;;;;;;;5124818;27;61933;-74
2022/05/19 03:44:57;;;;;;;;;7.50;5.50;;;;;;;;5125036;27;61854;-75
2022/05/19 03:47:22;;;;;;;;;6.00;5.33;;;;;;;;5123954;27;61937;-74
2022/05/19 03:49:49;;;;;;;;;5.00;5.00;;;;;;;;5124621;27;61777;-74
2022/05/19 03:52:14;;;;;;;;;6.33;5.67;;;;;;;;5124765;27;62524;-75
2022/05/19 03:54:39;;;;;;;;;8.00;6.67;;;;;;;;5125034;27;61802;-74
2022/05/19 03:57:06;;;;;;;;;8.00;8.00;;;;;;;;5124953;27;61872;-74
2022/05/19 03:59:31;;;;;;;;;6.00;5.00;;;;;;;;5124949;27;61934;-75
2022/05/19 04:01:57;;;;;;;;;8.67;7.33;;;;;;;;5123181;27;63705;-74
2022/05/19 04:04:22;;;;;;;;;7.33;5.67;;;;;;;;5124778;27;61890;-74
2022/05/19 04:06:47;;;;;;;;;9.00;5.67;;;;;;;;5125129;27;61696;-74
2022/05/19 04:09:12;;;;;;;;;8.00;8.00;;;;;;;;5125108;27;61912;-75
2022/05/19 04:11:38;;;;;;;;;7.67;7.00;;;;;;;;5124179;27;62483;-74
2022/05/19 04:14:03;;;;;;;;;6.33;4.33;;;;;;;;5124688;27;61940;-75
2022/05/19 04:16:28;;;;;;;;;5.00;5.00;;;;;;;;5125208;27;61939;-75
2022/05/19 04:18:54;;;;;;;;;9.00;6.67;;;;;;;;5124830;27;61724;-75
2022/05/19 04:21:20;;;;;;;;;6.33;5.33;;;;;;;;5124418;27;62513;-74
2022/05/19 04:23:45;;;;;;;;;10.00;8.33;;;;;;;;5124602;27;61764;-74
2022/05/19 04:26:11;;;;;;;;;8.33;6.00;;;;;;;;5124801;27;61922;-75
2022/05/19 04:28:36;;;;;;;;;12.33;9.00;;;;;;;;5123111;27;61982;-75
2022/05/19 04:31:01;;;;;;;;;5.33;5.00;;;;;;;;5123358;27;62035;-75
2022/05/19 04:33:27;;;;;;;;;4.75;4.75;;;;;;;;5123152;27;61798;-75
2022/05/19 04:35:52;;;;;;;;;8.00;7.00;;;;;;;;5124304;27;62209;-75
2022/05/19 04:38:18;;;;;;;;;7.33;5.00;;;;;;;;5122945;27;62092;-75
2022/05/19 04:40:47;;;;;;;;;9.33;7.00;;;;;;;;5123692;27;61827;-74
2022/05/19 04:43:13;;;;;;;;;9.00;6.50;;;;;;;;5124898;27;61856;-77
2022/05/19 04:45:38;;;;;;;;;10.33;6.67;;;;;;;;5124428;27;62343;-75
2022/05/19 04:48:04;;;;;;;;;8.75;6.25;;;;;;;;5124488;27;61870;-74
2022/05/19 04:50:29;;;;;;;;;10.50;7.50;;;;;;;;5123837;27;61759;-75
2022/05/19 04:52:59;;;;;;;;;7.50;7.50;;;;;;;;5124138;27;62037;-74
2022/05/19 04:55:25;;;;;;;;;8.25;7.25;;;;;;;;5119565;27;61889;-75
2022/05/19 04:57:51;;;;;;;;;11.75;8.75;;;;;;;;5116010;27;61943;-74
2022/05/19 05:00:16;;;;;;;;;11.75;8.75;;;;;;;;5122320;27;62775;-75
2022/05/19 05:02:41;;;;;;;;;9.50;7.25;;;;;;;;5122555;27;62131;-75
2022/05/19 05:05:07;;;;;;;;;9.50;9.00;;;;;;;;5123778;27;61948;-75
2022/05/19 05:07:37;;;;;;;;;10.50;8.50;;;;;;;;5123569;27;62154;-75
2022/05/19 05:10:06;;;;;;;;;6.00;6.00;;;;;;;;5123119;27;61973;-77
2022/05/19 05:12:32;;;;;;;;;7.67;6.33;;;;;;;;5122316;27;61911;-78
2022/05/19 05:14:57;;;;;;;;;7.00;7.00;;;;;;;;5123160;27;61809;-79
2022/05/19 05:17:23;;;;;;;;;6.33;5.67;;;;;;;;5123121;27;61794;-76
2022/05/19 05:19:48;;;;;;;;;8.00;7.75;;;;;;;;5125552;27;61334;-77
2022/05/19 05:22:13;;;;;;;;;9.00;8.00;;;;;;;;5123763;27;61836;-77
2022/05/19 05:24:39;;;;;;;;;7.25;6.00;;;;;;;;5123979;27;61696;-77
2022/05/19 05:27:05;;;;;;;;;9.00;7.25;;;;;;;;5122443;27;62204;-77
2022/05/19 05:29:31;;;;;;;;;6.50;5.25;;;;;;;;5123790;27;62715;-78
2022/05/19 05:31:56;;;;;;;;;7.75;6.50;;;;;;;;5123260;27;61778;-78
2022/05/19 05:34:21;;;;;;;;;7.33;6.67;;;;;;;;5123264;27;61693;-78
2022/05/19 05:36:46;;;;;;;;;8.00;7.00;;;;;;;;5121404;27;61810;-75
2022/05/19 05:39:12;;;;;;;;;11.00;7.67;;;;;;;;5122202;27;62619;-78
2022/05/19 05:41:37;;;;;;;;;10.25;6.50;;;;;;;;5123026;27;61923;-77
2022/05/19 05:44:02;;;;;;;;;11.50;10.00;;;;;;;;5120712;27;62010;-80
2022/05/19 05:46:28;;;;;;;;;8.00;6.00;;;;;;;;5122895;27;62161;-79
2022/05/19 05:48:53;;;;;;;;;6.00;5.33;;;;;;;;5121788;27;64591;-81
2022/05/19 05:51:18;;;;;;;;;6.33;6.33;;;;;;;;5123551;27;61867;-79
2022/05/19 05:53:44;;;;;;;;;9.25;8.00;;;;;;;;5123482;27;61755;-80
2022/05/19 05:56:11;;;;;;;;;9.50;8.25;;;;;;;;5123323;27;61757;-81
2022/05/19 05:58:37;;;;;;;;;11.00;10.00;;;;;;;;5121884;27;61759;-77
2022/05/19 06:01:04;;;;;;;;;7.67;7.00;;;;;;;;5121442;27;61758;-77
2022/05/19 06:03:29;;;;;;;;;7.67;6.00;;;;;;;;5124111;27;61923;-77
2022/05/19 06:05:54;;;;;;;;;6.50;6.25;;;;;;;;5123664;27;62201;-75
2022/05/19 06:08:20;;;;;;;;;7.25;7.25;;;;;;;;5122230;27;61889;-76
2022/05/19 06:10:45;;;;;;;;;9.00;7.67;;;;;;;;5120678;27;61744;-78
2022/05/19 06:13:12;;;;;;;;;8.00;8.00;;;;;;;;5120110;27;61824;-77
2022/05/19 06:15:37;;;;;;;;;8.67;8.00;;;;;;;;5121203;27;61870;-76
2022/05/19 06:18:04;;;;;;;;;10.25;7.00;;;;;;;;5121861;27;62073;-76
2022/05/19 06:20:29;;;;;;;;;11.00;6.33;;;;;;;;5122903;27;61814;-76
2022/05/19 06:22:54;;;;;;;;;8.50;8.00;;;;;;;;5121658;27;62052;-76
2022/05/19 06:25:21;;;;;;;;;12.75;9.25;;;;;;;;5123307;27;61732;-76
2022/05/19 06:27:49;;;;;;;;;7.50;7.00;;;;;;;;5120630;27;63565;-76
2022/05/19 06:30:15;;;;;;;;;11.75;7.50;;;;;;;;5122582;27;61940;-76
2022/05/19 06:32:41;;;;;;;;;12.00;8.00;;;;;;;;5122635;27;61685;-76
2022/05/19 06:35:07;;;;;;;;;6.00;6.00;;;;;;;;5115038;27;62018;-75
2022/05/19 06:37:32;;;;;;;;;10.25;8.75;;;;;;;;5117987;27;61861;-75
2022/05/19 06:39:58;;;;;;;;;9.25;8.75;;;;;;;;5104530;27;61836;-75
2022/05/19 06:42:23;;;;;;;;;10.75;8.75;;;;;;;;5119294;27;61695;-74
2022/05/19 06:44:48;;;;;;;;;11.00;9.25;;;;;;;;5107479;27;61717;-75
2022/05/19 06:47:14;;;;;;;;;12.25;9.75;;;;;;;;5105805;27;64740;-73
2022/05/19 06:49:40;;;;;;;;;12.25;11.25;;;;;;;;5121839;27;61863;-74
2022/05/19 06:52:06;;;;;;;;;9.50;9.00;;;;;;;;5122103;27;62217;-74
2022/05/19 06:54:31;;;;;;;;;8.67;8.67;;;;;;;;5121532;27;61910;-74
2022/05/19 06:56:56;;;;;;;;;8.67;8.67;;;;;;;;5119303;27;64199;-74
2022/05/19 06:59:23;;;;;;;;;12.00;9.25;;;;;;;;5120356;27;61763;-77
2022/05/19 07:01:48;;;;;;;;;7.25;7.25;;;;;;;;5117740;27;62037;-75
2022/05/19 07:04:16;;;;;;;;;11.67;9.33;;;;;;;;5119817;27;62091;-76
2022/05/19 07:06:42;;;;;;;;;10.33;9.00;;;;;;;;5119512;27;63795;-76
2022/05/19 07:09:07;;;;;;;;;16.00;9.50;;;;;;;;5120670;27;61805;-75
2022/05/19 07:11:33;;;;;;;;;10.67;7.33;;;;;;;;5119550;27;61931;-75
2022/05/19 07:13:59;;;;;;;;;10.75;9.25;;;;;;;;5119673;27;62176;-75
2022/05/19 07:16:25;;;;;;;;;8.00;5.00;;;;;;;;5112549;27;63623;-75
2022/05/19 07:18:50;;;;;;;;;11.50;7.50;;;;;;;;5121004;27;61894;-75
2022/05/19 07:21:18;;;;;;;;;11.00;8.75;;;;;;;;5119043;27;61880;-77
2022/05/19 07:23:44;;;;;;;;;12.25;8.75;;;;;;;;5118816;27;61957;-75
2022/05/19 07:26:09;;;;;;;;;11.00;9.33;;;;;;;;5123036;27;61802;-76
2022/05/19 07:28:35;;;;;;;;;12.00;9.75;;;;;;;;5123269;27;61877;-76
2022/05/19 07:31:03;;;;;;;;;9.00;9.00;;;;;;;;5123629;27;61983;-79
2022/05/19 07:33:28;;;;;;;;;16.00;10.75;;;;;;;;5123904;27;61720;-76
2022/05/19 07:35:55;;;;;;;;;11.00;9.00;;;;;;;;5123228;27;61797;-79
2022/05/19 07:38:22;;;;;;;;;12.00;9.00;;;;;;;;5123043;27;62129;-77
2022/05/19 07:40:49;;;;;;;;;12.50;9.25;;;;;;;;5122775;27;61827;-78
2022/05/19 07:45:58;;;;;;;;;7.75;7.25;;;;;;;;5122781;27;61914;-79
2022/05/19 07:48:24;;;;;;;;;10.00;8.25;;;;;;;;5123469;27;61798;-74
2022/05/19 07:50:49;;;;;;;;;9.00;6.00;;;;;;;;5123333;27;61821;-75
2022/05/19 07:53:14;;;;;;;;;8.33;8.00;;;;;;;;5123659;27;61779;-75
2022/05/19 07:55:40;;;;;;;;;7.00;7.00;;;;;;;;5121993;27;63003;-75
2022/05/19 07:58:05;;;;;;;;;14.00;10.33;;;;;;;;5122832;27;61825;-75
2022/05/19 08:00:31;;;;;;;;;14.67;10.33;;;;;;;;5121100;27;61936;-76
2022/05/19 08:02:56;;;;;;;;;8.00;8.00;;;;;;;;5123328;27;61785;-77
2022/05/19 08:05:21;;;;;;;;;12.00;9.00;;;;;;;;5122720;27;61741;-74
2022/05/19 08:07:47;;;;;;;;;6.67;5.00;;;;;;;;5121994;27;62147;-74
2022/05/19 08:10:23;;;;;;;;;12.67;6.67;;;;;;;;5123078;27;61707;-74
2022/05/19 08:15:36;;;;;;;;;7.67;7.67;;;;;;;;5121262;27;61631;-74
2022/05/19 08:18:09;;;;;;;;;9.33;7.67;;;;;;;;5119285;27;61978;-74
2022/05/19 08:20:36;;;;;;;;;6.67;5.67;;;;;;;;5122936;27;62188;-75
2022/05/19 08:23:03;;;;;;;;;6.00;4.67;;;;;;;;5121613;27;61822;-75
2022/05/19 08:25:28;;;;;;;;;8.67;7.00;;;;;;;;5120622;27;63877;-74
2022/05/19 08:27:55;;;;;;;;;10.00;7.00;;;;;;;;5122490;27;61919;-75
2022/05/19 08:30:20;;;;;;;;;5.67;5.67;;;;;;;;5121052;27;61826;-74
2022/05/19 08:32:46;;;;;;;;;5.33;5.33;;;;;;;;5117786;27;62037;-75
2022/05/19 08:35:11;;;;;;;;;3.67;3.00;;;;;;;;5121933;27;62680;-78
2022/05/19 08:37:36;;;;;;;;;8.67;5.33;;;;;;;;5122209;27;61906;-75
2022/05/19 08:40:02;;;;;;;;;6.33;6.00;;;;;;;;5122504;27;61722;-77
2022/05/19 08:42:30;;;;;;;;;5.33;5.00;;;;;;;;5122558;27;61739;-74
2022/05/19 08:44:57;;;;;;;;;6.33;4.33;;;;;;;;5119865;27;63896;-75
2022/05/19 08:47:25;;;;;;;;;6.00;6.00;;;;;;;;5120743;27;62008;-77
2022/05/19 08:49:53;;;;;;;;;5.67;4.67;;;;;;;;5122126;27;61875;-74
2022/05/19 08:52:18;;;;;;;;;5.00;4.00;;;;;;;;5120910;27;62044;-76
2022/05/19 08:54:45;;;;;;;;;2.00;2.00;;;;;;;;5121182;27;61841;-76
2022/05/19 08:57:14;;;;;;;;;4.00;3.00;;;;;;;;5121046;27;61913;-77
2022/05/19 08:59:49;;;;;;;;;4.00;4.00;;;;;;;;5121859;27;61877;-74
2022/05/19 09:02:23;;;;;;;;;2.67;2.67;;;;;;;;5122999;27;61864;-75
2022/05/19 09:04:48;;;;;;;;;5.67;2.67;;;;;;;;5114674;27;63718;-76
2022/05/19 09:10:05;;;;;;;;;2.33;2.00;;;;;;;;5122409;27;61843;-74
2022/05/19 09:12:32;;;;;;;;;1.67;1.67;;;;;;;;5121136;27;61880;-74
2022/05/19 09:14:57;;;;;;;;;7.00;5.67;;;;;;;;5120899;27;61951;-77
2022/05/19 09:17:26;;;;;;;;;7.00;5.33;;;;;;;;5122071;27;62019;-76
2022/05/19 09:19:53;;;;;;;;;8.67;8.67;;;;;;;;5121641;27;62275;-73
2022/05/19 09:22:25;;;;;;;;;12.33;8.67;;;;;;;;5116832;27;62187;-78
2022/05/19 09:24:52;;;;;;;;;8.00;8.00;;;;;;;;5119071;27;64900;-76
2022/05/19 09:27:19;;;;;;;;;14.25;10.50;;;;;;;;5121259;27;62122;-74
2022/05/19 09:29:49;;;;;;;;;11.50;10.50;;;;;;;;5121132;27;61765;-75
2022/05/19 09:32:14;;;;;;;;;10.00;8.33;;;;;;;;5122054;27;61912;-74
2022/05/19 09:34:44;;;;;;;;;9.25;9.00;;;;;;;;5118874;27;62489;-74
2022/05/19 09:37:12;;;;;;;;;6.00;5.00;;;;;;;;5121148;27;61915;-75
2022/05/19 09:39:43;;;;;;;;;6.67;6.67;;;;;;;;5121104;27;61885;-74
2022/05/19 09:42:10;;;;;;;;;7.00;5.67;;;;;;;;5121706;27;61805;-77
2022/05/19 09:44:38;;;;;;;;;6.50;6.50;;;;;;;;5118043;27;63914;-77
2022/05/19 09:47:18;;;;;;;;;5.00;5.00;;;;;;;;5121044;27;61907;-76
2022/05/19 09:49:48;;;;;;;;;3.00;3.00;;;;;;;;5117280;27;61874;-77
2022/05/19 09:52:18;;;;;;;;;3.00;2.67;;;;;;;;5120013;27;62067;-74
2022/05/19 09:54:51;;;;;;;;;4.67;2.67;;;;;;;;5121395;27;61929;-77
2022/05/19 09:57:18;;;;;;;;;3.33;3.33;;;;;;;;5121732;27;61709;-75
2022/05/19 09:59:48;;;;;;;;;1.67;1.67;;;;;;;;5121006;27;61869;-73
2022/05/19 10:02:31;;;;;;;;;4.33;2.67;;;;;;;;5121435;27;62876;-73
2022/05/19 10:04:58;;;;;;;;;3.00;3.00;;;;;;;;5117896;27;63848;-73
2022/05/19 10:07:24;;;;;;;;;1.33;1.33;;;;;;;;5121028;27;61784;-73
2022/05/19 10:09:50;;;;;;;;;1.33;0.67;;;;;;;;5120576;27;61803;-74
2022/05/19 10:12:21;;;;;;;;;0.67;0.67;;;;;;;;5120865;27;61961;-74
2022/05/19 10:14:49;;;;;;;;;2.67;1.00;;;;;;;;5119699;27;62655;-78
2022/05/19 10:17:17;;;;;;;;;1.67;0.00;;;;;;;;5119809;27;62157;-77
2022/05/19 10:19:43;;;;;;;;;0.67;0.00;;;;;;;;5119136;27;61895;-78
2022/05/19 10:22:23;;;;;;;;;0.00;0.00;;;;;;;;5121540;27;62030;-77
2022/05/19 10:24:57;;;;;;;;;0.67;0.67;;;;;;;;5121066;27;61967;-74
2022/05/19 10:33:22;;;;;;;;;0.67;0.67;;;;;;;;5121944;27;62267;-78
2022/05/19 10:35:47;;;;;;;;;0.00;0.00;;;;;;;;5120076;27;61907;-77
2022/05/19 10:38:27;;;;;;;;;0.00;0.00;;;;;;;;5119732;27;62144;-73
2022/05/19 10:40:53;;;;;;;;;0.33;0.33;;;;;;;;5120096;27;61783;-73
2022/05/19 10:43:21;;;;;;;;;0.00;0.00;;;;;;;;5120977;27;61962;-72
2022/05/19 10:45:47;;;;;;;;;0.33;0.33;;;;;;;;5120088;27;61916;-72
2022/05/19 10:48:25;;;;;;;;;0.67;0.67;;;;;;;;5120859;27;61958;-73
2022/05/19 10:50:59;;;;;;;;;1.00;1.00;;;;;;;;5117013;27;61799;-72
2022/05/19 10:53:33;;;;;;;;;2.00;1.00;;;;;;;;5120694;27;62188;-72
2022/05/19 10:55:58;;;;;;;;;1.00;0.00;;;;;;;;5119750;27;62873;-73
2022/05/19 10:58:23;;;;;;;;;1.00;0.00;;;;;;;;5121875;27;61750;-72
2022/05/19 11:00:51;;;;;;;;;2.67;1.00;;;;;;;;5119654;27;62371;-72
2022/05/19 11:03:23;;;;;;;;;1.00;1.00;;;;;;;;5117230;27;62248;-79
2022/05/19 11:06:07;;;;;;;;;0.00;0.00;;;;;;;;5121797;27;63747;-73
2022/05/19 11:08:37;;;;;;;;;2.00;0.67;;;;;;;;5122480;27;61990;-73
2022/05/19 11:11:12;;;;;;;;;1.67;0.33;;;;;;;;5118659;27;61779;-73
2022/05/19 11:13:56;;;;;;;;;0.33;0.33;;;;;;;;5123909;27;61796;-73
2022/05/19 11:16:37;;;;;;;;;5.00;1.00;;;;;;;;5121072;27;62070;-74
2022/05/19 11:19:05;;;;;;;;;0.00;0.00;;;;;;;;5120957;27;61964;-73
2022/05/19 11:21:37;;;;;;;;;0.67;0.67;;;;;;;;5122588;27;61830;-74
2022/05/19 11:24:22;;;;;;;;;0.67;0.67;;;;;;;;5123917;27;61828;-75
2022/05/19 11:27:09;;;;;;;;;1.67;0.33;;;;;;;;5122859;27;62106;-74
2022/05/19 11:29:49;;;;;;;;;0.67;0.33;;;;;;;;5121998;27;62067;-75
2022/05/19 11:32:22;;;;;;;;;0.67;0.67;;;;;;;;5122124;27;62046;-78
2022/05/19 11:34:52;;;;;;;;;0.67;0.67;;;;;;;;5123744;27;61781;-74
2022/05/19 11:37:26;;;;;;;;;0.00;0.00;;;;;;;;5120320;27;62689;-74
2022/05/19 11:39:54;;;;;;;;;0.00;0.00;;;;;;;;5118217;27;61895;-73
2022/05/19 11:42:40;;;;;;;;;0.00;0.00;;;;;;;;5120639;27;62114;-73
2022/05/19 11:45:09;;;;;;;;;0.00;0.00;;;;;;;;5123092;27;62263;-74
2022/05/19 11:56:00;;;;;;;;;0.00;0.00;;;;;;;;5118965;27;62025;-74
2022/05/19 11:58:28;;;;;;;;;1.00;0.00;;;;;;;;5120266;27;63461;-73
2022/05/19 12:00:57;;;;;;;;;0.00;0.00;;;;;;;;5122813;27;62248;-74
2022/05/19 12:03:29;;;;;;;;;0.00;0.00;;;;;;;;5123433;27;61886;-74
2022/05/19 12:06:00;;;;;;;;;0.33;0.33;;;;;;;;5122672;27;62086;-73
2022/05/19 12:08:34;;;;;;;;;0.00;0.00;;;;;;;;5121859;27;62533;-74
2022/05/19 12:11:17;;;;;;;;;0.00;0.00;;;;;;;;5122598;27;61650;-75
2022/05/19 12:14:06;;;;;;;;;0.00;0.00;;;;;;;;5122686;27;61773;-73
2022/05/19 12:16:39;;;;;;;;;1.00;1.00;;;;;;;;5116388;27;61777;-75
2022/05/19 12:19:07;;;;;;;;;0.67;0.00;;;;;;;;5121266;27;64465;-74
2022/05/19 12:21:51;;;;;;;;;0.00;0.00;;;;;;;;5121670;27;62526;-75
2022/05/19 12:24:17;;;;;;;;;0.00;0.00;;;;;;;;5123165;27;61798;-74
2022/05/19 12:26:44;;;;;;;;;0.00;0.00;;;;;;;;5123182;27;61847;-75
2022/05/19 12:29:14;;;;;;;;;0.00;0.00;;;;;;;;5122806;27;63258;-74
2022/05/19 12:31:59;;;;;;;;;1.33;0.00;;;;;;;;5120101;27;61893;-74
2022/05/19 12:34:46;;;;;;;;;0.67;0.67;;;;;;;;5120900;27;61785;-75
2022/05/19 12:37:30;;;;;;;;;0.00;0.00;;;;;;;;5121506;27;61826;-75
2022/05/19 12:40:14;;;;;;;;;0.00;0.00;;;;;;;;5114317;27;64225;-74
2022/05/19 12:42:40;;;;;;;;;0.00;0.00;;;;;;;;5122225;27;61962;-74
2022/05/19 12:45:29;;;;;;;;;0.00;0.00;;;;;;;;5116698;27;63095;-77
2022/05/19 12:47:56;;;;;;;;;0.00;0.00;;;;;;;;5109853;27;61884;-75
2022/05/19 12:50:22;;;;;;;;;0.00;0.00;;;;;;;;5122088;27;62819;-75
2022/05/19 12:52:54;;;;;;;;;1.00;0.33;;;;;;;;5121379;27;62055;-75
2022/05/19 12:55:22;;;;;;;;;0.67;0.00;;;;;;;;5121520;27;61910;-75
2022/05/19 12:57:48;;;;;;;;;1.67;0.67;;;;;;;;5122639;27;62014;-75
2022/05/19 13:00:34;;;;;;;;;0.00;0.00;;;;;;;;5121610;27;62038;-75
2022/05/19 13:03:03;;;;;;;;;0.00;0.00;;;;;;;;5114708;27;61888;-75
2022/05/19 13:05:37;;;;;;;;;0.00;0.00;;;;;;;;5123234;27;61833;-75
2022/05/19 13:08:08;;;;;;;;;0.33;0.33;;;;;;;;5120496;27;62103;-75
2022/05/19 13:10:39;;;;;;;;;0.00;0.00;;;;;;;;5119308;27;62827;-75
2022/05/19 13:13:07;;;;;;;;;0.00;0.00;;;;;;;;5120746;27;61957;-75
2022/05/19 13:15:35;;;;;;;;;0.00;0.00;;;;;;;;5121396;27;61788;-76
2022/05/19 13:18:06;;;;;;;;;0.00;0.00;;;;;;;;5121687;27;61889;-76
2022/05/19 13:20:36;;;;;;;;;0.00;0.00;;;;;;;;5120064;27;62827;-76
2022/05/19 13:23:04;;;;;;;;;0.00;0.00;;;;;;;;5119432;27;61795;-75
2022/05/19 13:25:31;;;;;;;;;0.00;0.00;;;;;;;;5122809;27;62036;-75
2022/05/19 13:31:16;;;;;;;;;0.00;0.00;;;;;;;;5120956;27;62422;-74
2022/05/19 13:33:41;;;;;;;;;0.00;0.00;;;;;;;;5122071;27;61847;-75
2022/05/19 13:36:09;;;;;;;;;0.33;0.33;;;;;;;;5121657;27;62289;-75
2022/05/19 13:38:35;;;;;;;;;1.00;1.00;;;;;;;;5122260;27;61909;-75
2022/05/19 13:41:02;;;;;;;;;1.00;0.00;;;;;;;;5118758;27;63268;-75
2022/05/19 13:43:32;;;;;;;;;1.00;1.00;;;;;;;;5120703;27;61872;-75
2022/05/19 13:46:00;;;;;;;;;1.00;1.00;;;;;;;;5118655;27;61930;-75
2022/05/19 13:48:25;;;;;;;;;0.67;0.67;;;;;;;;5120691;27;61930;-75
2022/05/19 13:50:51;;;;;;;;;0.33;0.33;;;;;;;;5119788;27;63333;-75
2022/05/19 13:53:18;;;;;;;;;0.00;0.00;;;;;;;;5121414;27;61910;-75
2022/05/19 13:55:53;;;;;;;;;0.00;0.00;;;;;;;;5118877;27;61875;-75
2022/05/19 13:58:18;;;;;;;;;0.67;0.67;;;;;;;;5121821;27;61840;-76
2022/05/19 14:00:44;;;;;;;;;0.67;0.67;;;;;;;;5118750;27;63538;-75
2022/05/19 14:03:09;;;;;;;;;0.33;0.33;;;;;;;;5121841;27;62330;-76
2022/05/19 14:05:36;;;;;;;;;1.33;1.33;;;;;;;;5121586;27;61855;-75
2022/05/19 14:08:05;;;;;;;;;0.00;0.00;;;;;;;;5122110;27;61793;-74
2022/05/19 14:10:37;;;;;;;;;0.33;0.33;;;;;;;;5120270;27;62646;-75
2022/05/19 14:13:03;;;;;;;;;1.67;1.67;;;;;;;;5121495;27;62047;-74
2022/05/19 14:15:33;;;;;;;;;0.67;0.67;;;;;;;;5121420;27;62028;-75
2022/05/19 14:18:01;;;;;;;;;0.33;0.33;;;;;;;;5121873;27;61757;-75
2022/05/19 14:20:40;;;;;;;;;0.00;0.00;;;;;;;;5117172;27;61913;-75
2022/05/19 14:23:17;;;;;;;;;1.00;1.00;;;;;;;;5121493;27;61747;-74
2022/05/19 14:25:43;;;;;;;;;1.00;1.00;;;;;;;;5121555;27;61917;-75
2022/05/19 14:28:18;;;;;;;;;1.00;1.00;;;;;;;;5121483;27;62049;-75
2022/05/19 14:30:45;;;;;;;;;0.33;0.00;;;;;;;;5119115;27;64514;-75
2022/05/19 14:33:14;;;;;;;;;0.00;0.00;;;;;;;;5122252;27;62487;-76
2022/05/19 14:35:43;;;;;;;;;0.00;0.00;;;;;;;;5123483;27;61913;-74
2022/05/19 14:38:17;;;;;;;;;0.00;0.00;;;;;;;;5125077;27;61950;-74
2022/05/19 14:43:32;;;;;;;;;1.00;1.00;;;;;;;;5124481;27;61771;-74
2022/05/19 14:46:00;;;;;;;;;1.00;0.67;;;;;;;;5123214;27;62038;-74
2022/05/19 14:48:38;;;;;;;;;0.67;0.67;;;;;;;;5124340;27;61860;-74
2022/05/19 14:51:16;;;;;;;;;1.00;0.00;;;;;;;;5122384;27;62764;-77
2022/05/19 14:53:43;;;;;;;;;0.00;0.00;;;;;;;;5124662;27;61770;-76
2022/05/19 14:56:13;;;;;;;;;3.33;1.00;;;;;;;;5120418;27;61981;-76
2022/05/19 14:58:40;;;;;;;;;0.00;0.00;;;;;;;;5122679;27;61888;-76
2022/05/19 15:01:06;;;;;;;;;1.00;0.00;;;;;;;;5121374;27;63869;-74
2022/05/19 15:03:31;;;;;;;;;0.00;0.00;;;;;;;;5124473;27;61929;-74
2022/05/19 15:05:56;;;;;;;;;0.00;0.00;;;;;;;;5124156;27;62508;-74
2022/05/19 15:08:22;;;;;;;;;1.67;0.67;;;;;;;;5124766;27;62128;-75
2022/05/19 15:10:48;;;;;;;;;0.00;0.00;;;;;;;;5122597;27;61883;-74
2022/05/19 15:13:14;;;;;;;;;1.00;1.00;;;;;;;;5124715;27;61861;-74
2022/05/19 15:15:41;;;;;;;;;1.67;0.00;;;;;;;;5121876;27;61818;-75